• Join FlightAware (Why Join?)
  • Login
  • US Flag 
11:21AM EST


 

Airport Tracker/Info


-or-


 

Live Flight TrackerFlight Track Log ✈ NJE9SD ✈ 16-Apr-2014 ✈ KTEB - LEJR / XRY

Flight Track Log - Related Links

Times and Time Zones

All times are in EDT time to prevent confusion due to time zone crossing. See the NJE9SD flight status page for this flight to view local times or setup timezone preferences in your user account.

Time Position Orientation Groundspeed Altitude Reporting Facility
EDT Latitude Longitude Course Direction KTS MPH feet Rate Location/Type
07:41PM 40.8928 -74.0419 311° West 160 184 2,000  Level Boston Center
07:42PM 40.9228 -74.0883 311° West 195 224 4,300 1,860 Climbing Boston Center
07:43PM 40.9667 -74.1500 313° West 231 266 6,000 780 Climbing New York TRACON
07:44PM 41.0500 -74.1500 360° North 262 302 6,000  Level New York TRACON
07:45PM 41.1167 -74.1333 11° North 262 302 6,000 960 Level New York TRACON
07:46PM 41.1667 -74.1000 27° Northeast 276 318 7,900 2,160 Climbing New York TRACON
07:47PM 41.1906 -73.9906 74° East 288 331 10,500 1,980 Climbing Boston Center
07:48PM 41.2156 -73.8778 74° East 319 367 12,000 1,980 Climbing Boston Center
07:49PM 41.2469 -73.7425 73° East 381 438 14,600 2,340 Climbing Boston Center
07:50PM 41.2828 -73.5872 73° East 405 466 16,900 1,620 Climbing Boston Center
07:51PM 41.3147 -73.4411 74° East 411 473 18,000 1,620 Climbing Boston Center
07:52PM 41.3450 -73.3075 73° East 424 488 20,300 2,400 Climbing Boston Center
07:53PM 41.3794 -73.1522 73° East 432 497 23,000 1,260 Climbing Boston Center
07:54PM 41.4572 -72.9692 60° Northeast 464 534 23,000  Level Boston Center
07:56PM 41.5214 -72.8219 60° Northeast 462 532 23,000 600 Level Boston Center
07:57PM 41.5772 -72.6950 60° Northeast 463 533 24,300 1,860 Climbing Boston Center
07:58PM 41.6597 -72.5069 60° Northeast 488 562 26,900 2,160 Climbing Boston Center
07:59PM 41.7311 -72.3472 59° Northeast 500 575 28,800 1,740 Climbing Boston Center
08:00PM 41.8014 -72.1806 60° Northeast 514 592 30,500 1,020 Climbing Boston Center
08:01PM 41.8650 -72.0078 64° Northeast 518 596 31,000 300 Climbing Boston Center
08:02PM 41.9283 -71.8325 64° Northeast 521 600 31,200 1,140 Climbing Boston Center
08:03PM 41.9903 -71.6553 65° Northeast 524 603 33,400 1,320 Climbing Boston Center
08:04PM 42.0517 -71.4775 65° Northeast 525 604 34,000 240 Climbing Boston Center
08:05PM 42.1178 -71.2892 65° Northeast 547 629 34,000 120 Level Boston Center
08:06PM 42.1933 -71.0778 64° Northeast 560 644 34,300 900 Climbing Boston Center
08:07PM 42.2592 -70.8861 65° Northeast 560 644 35,900 1,260 Climbing Boston Center
08:08PM 42.3283 -70.6839 65° Northeast 555 639 37,000 540 Climbing Boston Center
08:09PM 42.3933 -70.4911 65° Northeast 560 644 37,000  Level Boston Center
08:10PM 42.4578 -70.2994 65° Northeast 565 650 37,000  Level Boston Center
08:11PM 42.5231 -70.1067 65° Northeast 565 650 37,000  Level Boston Center
08:12PM 42.5867 -69.9128 66° East 566 651 37,000  Level Boston Center
08:13PM 42.6514 -69.7189 66° East 566 651 37,000  Level Boston Center
08:14PM 42.7294 -69.4839 66° East 567 652 37,000  Level Boston Center
08:15PM 42.7914 -69.2947 66° East 565 650 37,000  Level Boston Center
08:16PM 42.8556 -69.1003 66° East 562 647 37,000  Level Boston Center
08:17PM 42.9189 -68.9039 66° East 566 651 37,000  Level Boston Center
08:18PM 42.9817 -68.7053 67° East 567 652 37,000  Level Boston Center
08:19PM 43.0467 -68.5003 66° East 567 652 37,000  Level Boston Center
08:20PM 43.1081 -68.3036 67° East 566 651 37,000 -60 Level Boston Center
08:21PM 43.1703 -68.1072 66° East 566 651 36,900 240 Descending Boston Center
08:22PM 43.2308 -67.9081 67° East 566 651 37,500 780 Climbing Boston Center
08:23PM 43.2900 -67.7114 67° East 564 649 38,500 720 Climbing Boston Center
08:24PM 43.3619 -67.4753 67° East 563 648 39,000 240 Climbing Boston Center
08:25PM 43.4244 -67.2725 67° East 575 662 39,000  Level Boston Center
08:26PM 43.4667 -67.0667 74° East 570 656 39,000  Level Moncton Center
08:27PM 43.5167 -66.8667 71° East 570 656 39,000  Level Moncton Center
08:28PM 43.6000 -66.6500 62° Northeast 570 656 39,000  Level Moncton Center
08:29PM 43.6500 -66.4500 71° East 570 656 39,000  Level Moncton Center
08:30PM 43.7000 -66.2500 71° East 580 667 39,000  Level Moncton Center
08:31PM 43.7667 -66.0333 67° East 580 667 39,000  Level Moncton Center
08:32PM 43.8333 -65.8167 67° East 580 667 39,000  Level Moncton Center
08:33PM 43.8833 -65.6333 69° East 580 667 39,000  Level Moncton Center
08:34PM 43.9500 -65.4000 68° East 580 667 39,000  Level Moncton Center
08:35PM 44.0000 -65.2167 69° East 580 667 39,000  Level Moncton Center
08:36PM 44.0667 -64.9833 68° East 580 667 39,000  Level Moncton Center
08:37PM 44.1167 -64.8000 69° East 580 667 39,000  Level Moncton Center
08:38PM 44.1667 -64.5667 73° East 580 667 39,000  Level Moncton Center
08:39PM 44.2167 -64.3667 71° East 570 656 39,000  Level Moncton Center
08:40PM 44.2833 -64.1667 65° Northeast 570 656 39,000  Level Moncton Center
08:41PM 44.3333 -63.9500 72° East 570 656 39,000  Level Moncton Center
08:42PM 44.4000 -63.7500 65° Northeast 570 656 39,000  Level Moncton Center
08:43PM 44.4500 -63.5333 72° East 580 667 39,000  Level Moncton Center
08:44PM 44.5000 -63.3167 72° East 580 667 39,000  Level Moncton Center
08:45PM 44.5667 -63.1000 67° East 580 667 39,000  Level Moncton Center
08:46PM 44.6167 -62.9000 71° East 580 667 39,000  Level Moncton Center
08:47PM 44.6667 -62.6833 72° East 580 667 39,000  Level Moncton Center
08:48PM 44.7167 -62.4667 72° East 570 656 39,000  Level Moncton Center
08:49PM 44.7667 -62.2500 72° East 570 656 39,000  Level Moncton Center
08:50PM 44.8000 -62.0500 77° East 570 656 39,000  Level Gander Center
08:51PM 44.8667 -61.8500 65° Northeast 580 667 39,000  Level Gander Center
08:52PM 44.9167 -61.6333 72° East 570 656 39,000  Level Gander Center
08:53PM 44.9667 -61.4000 73° East 570 656 39,000  Level Moncton Center
08:54PM 45.0333 -61.1833 66° East 580 667 39,000  Level Moncton Center
08:55PM 45.0667 -60.9667 78° East 580 667 39,000  Level Moncton Center
08:56PM 45.1167 -60.7500 72° East 590 679 39,000  Level Moncton Center
08:57PM 45.1667 -60.5333 72° East 590 679 39,000  Level Moncton Center
08:58PM 45.2167 -60.3167 72° East 580 667 39,000  Level Moncton Center
08:59PM 45.2667 -60.1000 72° East 570 656 39,000  Level Moncton Center
09:00PM 45.3167 -59.9000 70° East 560 644 39,000  Level Gander Center
09:01PM 45.3500 -59.6500 79° East 560 644 39,000 60 Level Moncton Center
09:02PM 45.4000 -59.4833 67° East 560 644 39,200 360 Climbing Gander Center
09:03PM 45.4500 -59.2500 73° East 560 644 39,800 540 Climbing Moncton Center
09:04PM 45.4833 -59.0500 77° East 570 656 40,300 480 Climbing Gander Center
09:05PM 45.5333 -58.8333 72° East 570 656 40,700 300 Climbing Gander Center
09:06PM 45.5833 -58.5833 74° East 570 656 41,000 120 Climbing Moncton Center
09:07PM 45.6333 -58.3667 72° East 570 656 41,000  Level Moncton Center
09:08PM 45.6667 -58.1667 77° East 570 656 41,000  Level Moncton Center
09:09PM 45.7167 -57.9500 72° East 570 656 41,000  Level Moncton Center
09:10PM 45.7667 -57.7333 72° East 570 656 41,000  Level Moncton Center
09:11PM 45.8000 -57.5167 77° East 560 644 41,000  Level Gander Center
09:13PM 45.8833 -57.1167 73° East 550 633 41,000  Level Gander Center
09:14PM 45.9167 -56.9000 77° East 550 633 41,000  Level Gander Center
09:15PM 45.9667 -56.7000 70° East 550 633 41,000  Level Gander Center
09:16PM 45.9833 -56.5000 83° East 540 621 41,000  Level Gander Center
09:17PM 46.0333 -56.2833 72° East 530 610 41,000  Level Gander Center
09:18PM 46.0667 -56.0833 76° East 530 610 41,000  Level Gander Center
09:19PM 46.1167 -55.8667 72° East 530 610 41,000  Level Gander Center
09:20PM 46.1333 -55.6667 83° East 530 610 41,000  Level Gander Center
09:21PM 46.1667 -55.4500 77° East 530 610 41,000  Level Gander Center
09:22PM 46.2167 -55.2500 70° East 530 610 41,000  Level Gander Center
09:23PM 46.2500 -55.0500 76° East 520 598 41,000  Level Gander Center
09:24PM 46.2667 -54.8500 83° East 510 587 41,000  Level Gander Center
09:25PM 46.3167 -54.6500 70° East 510 587 41,000  Level Gander Center
09:26PM 46.3500 -54.4667 75° East 510 587 41,000  Level Gander Center
09:27PM 46.3667 -54.2667 83° East 510 587 41,000  Level Gander Center
09:28PM 46.4000 -54.0333 78° East 510 587 41,000  Level Gander Center
09:29PM 46.4500 -53.8667 66° East 520 598 41,000  Level Gander Center
09:30PM 46.4833 -53.6333 78° East 520 598 41,000  Level Gander Center
09:31PM 46.5000 -53.4500 82° East 500 575 41,000  Level Gander Center
09:32PM 46.5333 -53.2500 76° East 500 575 41,000  Level Gander Center
09:33PM 46.5667 -53.0667 75° East 490 564 41,000  Level Gander Center
09:34PM 46.5833 -52.8667 83° East 490 564 41,000  Level Gander Center
09:35PM 46.6333 -52.6667 70° East 500 575 41,000  Level Gander Center
09:36PM 46.6500 -52.4667 83° East 500 575 41,000  Level Gander Center
09:37PM 46.6833 -52.2667 76° East 500 575 41,000  Level Gander Center
09:38PM 46.7167 -52.0667 76° East 500 575 41,000  Level Gander Center
09:39PM 46.7333 -51.8667 83° East 500 575 41,000  Level Gander Center
09:40PM 46.7667 -51.6833 75° East 500 575 41,000  Level Gander Center
09:41PM 46.7833 -51.4833 83° East 500 575 41,000  Level Gander Center
09:42PM 46.8167 -51.2833 76° East 500 575 41,000  Level Gander Center
09:43PM 46.8500 -51.0833 76° East 510 587 41,000  Level Gander Center
09:44PM 46.8667 -50.8833 83° East 510 587 41,000  Level Gander Center
09:45PM 46.8833 -50.6833 83° East 500 575 41,000  Level Gander Center
09:46PM 46.9167 -50.4833 76° East 500 575 41,000  Level Gander Center
09:47PM 46.9333 -50.2833 83° East 500 575 41,000  Level Gander Center
09:48PM 46.9667 -50.0833 76° East 500 575 41,000  Level Gander Center
09:49PM 46.9833 -49.8833 83° East 500 575 41,000  Level Gander Center
09:50PM 47.0000 -50.0000 95° East 472 543 41,000  Level ETMS Enhanced Traffic Management System
09:51PM 46.9500 -49.4667 95° East 490 564 41,000  Level Gander Center
09:52PM 46.9500 -49.2833 90° East 490 564 41,000  Level Gander Center
09:53PM 46.9167 -49.0833 104° East 490 564 41,000  Level Gander Center
09:54PM 46.9167 -48.8833 90° East 490 564 41,000  Level Gander Center
09:55PM 46.9167 -48.6833 90° East 480 552 41,000  Level Gander Center
09:56PM 46.8833 -48.4833 104° East 480 552 41,000  Level Gander Center
09:57PM 46.8833 -48.3167 90° East 470 541 41,000  Level Gander Center
09:58PM 46.8667 -48.1000 96° East 470 541 41,000  Level Gander Center
09:59PM 46.8500 -47.9333 98° East 470 541 41,000  Level Gander Center
10:00PM 46.8333 -47.7500 98° East 470 541 41,000  Level Gander Center
10:01PM 46.8333 -47.5500 90° East 470 541 41,000  Level Gander Center
10:02PM 46.8000 -47.3500 104° East 470 541 41,000  Level Gander Center
10:03PM 46.8000 -47.1667 90° East 470 541 41,000  Level Gander Center
10:04PM 46.7667 -46.9667 104° East 470 541 41,000  Level Gander Center
10:05PM 46.7667 -46.8000 90° East 470 541 41,000  Level Gander Center
10:07PM 46.7443 -46.5053 96° East  Level FlightAware Approximate
10:14PM 46.6248 -45.1500 98° East  Level FlightAware Approximate
10:15PM 46.6058 -44.9570 98° East  Level FlightAware Approximate
10:16PM 46.5864 -44.7641 98° East  Level FlightAware Approximate
10:17PM 46.5668 -44.5714 98° East  Level FlightAware Approximate
10:18PM 46.5468 -44.3788 99° East  Level FlightAware Approximate
10:19PM 46.5265 -44.1864 99° East  Level FlightAware Approximate
10:20PM 46.5058 -43.9941 99° East  Level FlightAware Approximate
10:21PM 46.4849 -43.8019 99° East  Level FlightAware Approximate
10:22PM 46.4636 -43.6100 99° East  Level FlightAware Approximate
10:23PM 46.4420 -43.4181 99° East  Level FlightAware Approximate
10:24PM 46.4201 -43.2264 99° East  Level FlightAware Approximate
10:25PM 46.3979 -43.0349 99° East  Level FlightAware Approximate
10:26PM 46.3753 -42.8435 100° East  Level FlightAware Approximate
10:27PM 46.3524 -42.6523 100° East  Level FlightAware Approximate
10:28PM 46.3292 -42.4612 100° East  Level FlightAware Approximate
10:29PM 46.3057 -42.2704 100° East  Level FlightAware Approximate
10:30PM 46.2819 -42.0796 100° East  Level FlightAware Approximate
10:31PM 46.2578 -41.8891 100° East  Level FlightAware Approximate
10:32PM 46.2333 -41.6987 100° East  Level FlightAware Approximate
10:33PM 46.2085 -41.5084 101° East  Level FlightAware Approximate
10:34PM 46.1834 -41.3184 101° East  Level FlightAware Approximate
10:35PM 46.1580 -41.1285 101° East  Level FlightAware Approximate
10:36PM 46.1323 -40.9388 101° East  Level FlightAware Approximate
10:37PM 46.1063 -40.7493 101° East  Level FlightAware Approximate
10:38PM 46.0799 -40.5600 101° East  Level FlightAware Approximate
10:39PM 46.0532 -40.3708 101° East  Level FlightAware Approximate
10:40PM 46.0263 -40.1818 102° East  Level FlightAware Approximate
10:41PM 45.9984 -39.9933 109° East  Level FlightAware Approximate
10:42PM 45.9540 -39.8114 109° East  Level FlightAware Approximate
10:43PM 45.9094 -39.6299 109° East  Level FlightAware Approximate
10:44PM 45.8645 -39.4486 110° East  Level FlightAware Approximate
10:45PM 45.8193 -39.2677 110° East  Level FlightAware Approximate
10:46PM 45.7738 -39.0870 110° East  Level FlightAware Approximate
10:47PM 45.7281 -38.9066 110° East  Level FlightAware Approximate
10:48PM 45.6820 -38.7265 110° East  Level FlightAware Approximate
10:49PM 45.6357 -38.5468 110° East  Level FlightAware Approximate
10:50PM 45.5891 -38.3673 110° East  Level FlightAware Approximate
10:51PM 45.5422 -38.1881 110° East  Level FlightAware Approximate
10:52PM 45.4951 -38.0092 111° Southeast  Level FlightAware Approximate
10:53PM 45.4476 -37.8306 111° Southeast  Level FlightAware Approximate
10:54PM 45.3999 -37.6523 111° Southeast  Level FlightAware Approximate
10:55PM 45.3519 -37.4743 111° Southeast  Level FlightAware Approximate
10:56PM 45.3036 -37.2967 111° Southeast  Level FlightAware Approximate
10:57PM 45.2551 -37.1193 111° Southeast  Level FlightAware Approximate
10:58PM 45.2062 -36.9422 111° Southeast  Level FlightAware Approximate
10:59PM 45.1571 -36.7654 111° Southeast  Level FlightAware Approximate
11:00PM 45.1078 -36.5890 112° Southeast  Level FlightAware Approximate
11:01PM 45.0581 -36.4128 112° Southeast  Level FlightAware Approximate
11:02PM 45.0082 -36.2370 112° Southeast  Level FlightAware Approximate
11:03PM 44.9580 -36.0615 112° Southeast  Level FlightAware Approximate
11:04PM 44.9075 -35.8863 112° Southeast  Level FlightAware Approximate
11:05PM 44.8567 -35.7114 112° Southeast  Level FlightAware Approximate
11:06PM 44.8056 -35.5368 112° Southeast  Level FlightAware Approximate
11:07PM 44.7543 -35.3625 112° Southeast  Level FlightAware Approximate
11:08PM 44.7027 -35.1886 113° Southeast  Level FlightAware Approximate
11:09PM 44.6509 -35.0149 113° Southeast  Level FlightAware Approximate
11:10PM 44.5988 -34.8416 113° Southeast  Level FlightAware Approximate
11:11PM 44.5464 -34.6685 113° Southeast  Level FlightAware Approximate
11:12PM 44.4938 -34.4958 113° Southeast  Level FlightAware Approximate
11:13PM 44.4409 -34.3234 113° Southeast  Level FlightAware Approximate
11:14PM 44.3878 -34.1513 113° Southeast  Level FlightAware Approximate
11:15PM 44.3344 -33.9795 113° Southeast  Level FlightAware Approximate
11:16PM 44.2807 -33.8080 114° Southeast  Level FlightAware Approximate
11:17PM 44.2268 -33.6369 114° Southeast  Level FlightAware Approximate
11:18PM 44.1726 -33.4661 114° Southeast  Level FlightAware Approximate
11:19PM 44.1182 -33.2955 114° Southeast  Level FlightAware Approximate
11:20PM 44.0635 -33.1253 114° Southeast  Level FlightAware Approximate
11:21PM 44.0088 -32.9553 114° Southeast  Level FlightAware Approximate
11:22PM 43.9538 -32.7856 114° Southeast  Level FlightAware Approximate
11:23PM 43.8985 -32.6162 114° Southeast  Level FlightAware Approximate
11:24PM 43.8431 -32.4471 114° Southeast  Level FlightAware Approximate
11:25PM 43.7873 -32.2784 115° Southeast  Level FlightAware Approximate
11:26PM 43.7314 -32.1099 115° Southeast  Level FlightAware Approximate
11:27PM 43.6752 -31.9418 115° Southeast  Level FlightAware Approximate
11:28PM 43.6187 -31.7740 115° Southeast  Level FlightAware Approximate
11:29PM 43.5620 -31.6065 115° Southeast  Level FlightAware Approximate
11:30PM 43.5050 -31.4393 115° Southeast  Level FlightAware Approximate
11:31PM 43.4478 -31.2724 115° Southeast  Level FlightAware Approximate
11:32PM 43.3904 -31.1059 115° Southeast  Level FlightAware Approximate
11:33PM 43.3327 -30.9396 115° Southeast  Level FlightAware Approximate
11:34PM 43.2747 -30.7737 116° Southeast  Level FlightAware Approximate
11:35PM 43.2166 -30.6081 116° Southeast  Level FlightAware Approximate
11:36PM 43.1582 -30.4428 116° Southeast  Level FlightAware Approximate
11:37PM 43.0995 -30.2778 116° Southeast  Level FlightAware Approximate
11:38PM 43.0407 -30.1132 116° Southeast  Level FlightAware Approximate
11:39PM 42.9868 -29.9459 108° East  Level FlightAware Approximate
11:40PM 42.9442 -29.7724 108° East  Level FlightAware Approximate
11:41PM 42.9013 -29.5991 109° East  Level FlightAware Approximate
11:42PM 42.8582 -29.4261 109° East  Level FlightAware Approximate
11:43PM 42.8148 -29.2533 109° East  Level FlightAware Approximate
11:44PM 42.7711 -29.0808 109° East  Level FlightAware Approximate
11:45PM 42.7272 -28.9085 109° East  Level FlightAware Approximate
11:46PM 42.6830 -28.7365 109° East  Level FlightAware Approximate
11:47PM 42.6386 -28.5646 109° East  Level FlightAware Approximate
11:48PM 42.5939 -28.3931 109° East  Level FlightAware Approximate
11:49PM 42.5490 -28.2218 110° East  Level FlightAware Approximate
11:50PM 42.5038 -28.0507 110° East  Level FlightAware Approximate
11:51PM 42.4583 -27.8799 110° East  Level FlightAware Approximate
11:52PM 42.4126 -27.7094 110° East  Level FlightAware Approximate
11:53PM 42.3667 -27.5390 110° East  Level FlightAware Approximate
11:54PM 42.3204 -27.3690 110° East  Level FlightAware Approximate
11:55PM 42.2740 -27.1992 110° East  Level FlightAware Approximate
11:56PM 42.2273 -27.0296 110° East  Level FlightAware Approximate
11:57PM 42.1803 -26.8603 110° East  Level FlightAware Approximate
11:58PM 42.1331 -26.6912 111° Southeast  Level FlightAware Approximate
11:59PM 42.0857 -26.5224 111° Southeast  Level FlightAware Approximate
12:00AM 42.0380 -26.3539 111° Southeast  Level FlightAware Approximate
12:01AM 41.9900 -26.1856 111° Southeast  Level FlightAware Approximate
12:02AM 41.9418 -26.0175 111° Southeast  Level FlightAware Approximate
12:03AM 41.8934 -25.8497 111° Southeast  Level FlightAware Approximate
12:04AM 41.8447 -25.6822 111° Southeast  Level FlightAware Approximate
12:05AM 41.7958 -25.5149 111° Southeast  Level FlightAware Approximate
12:06AM 41.7466 -25.3479 111° Southeast  Level FlightAware Approximate
12:07AM 41.6972 -25.1811 112° Southeast  Level FlightAware Approximate
12:08AM 41.6476 -25.0146 112° Southeast  Level FlightAware Approximate
12:09AM 41.5977 -24.8483 112° Southeast  Level FlightAware Approximate
12:10AM 41.5476 -24.6823 112° Southeast  Level FlightAware Approximate
12:11AM 41.4972 -24.5166 112° Southeast  Level FlightAware Approximate
12:12AM 41.4466 -24.3511 112° Southeast  Level FlightAware Approximate
12:13AM 41.3957 -24.1859 112° Southeast  Level FlightAware Approximate
12:14AM 41.3447 -24.0209 112° Southeast  Level FlightAware Approximate
12:15AM 41.2934 -23.8562 112° Southeast  Level FlightAware Approximate
12:16AM 41.2418 -23.6917 113° Southeast  Level FlightAware Approximate
12:17AM 41.1900 -23.5275 113° Southeast  Level FlightAware Approximate
12:18AM 41.1380 -23.3636 113° Southeast  Level FlightAware Approximate
12:19AM 41.0858 -23.2000 113° Southeast  Level FlightAware Approximate
12:20AM 41.0333 -23.0366 113° Southeast  Level FlightAware Approximate
12:21AM 40.9806 -22.8734 113° Southeast  Level FlightAware Approximate
12:22AM 40.9277 -22.7105 113° Southeast  Level FlightAware Approximate
12:23AM 40.8745 -22.5479 113° Southeast  Level FlightAware Approximate
12:24AM 40.8211 -22.3855 113° Southeast  Level FlightAware Approximate
12:25AM 40.7675 -22.2234 114° Southeast  Level FlightAware Approximate
12:26AM 40.7136 -22.0616 114° Southeast  Level FlightAware Approximate
12:27AM 40.6596 -21.9000 114° Southeast  Level FlightAware Approximate
12:28AM 40.6053 -21.7387 114° Southeast  Level FlightAware Approximate
12:29AM 40.5508 -21.5777 114° Southeast  Level FlightAware Approximate
12:30AM 40.4960 -21.4169 114° Southeast  Level FlightAware Approximate
12:31AM 40.4410 -21.2563 114° Southeast  Level FlightAware Approximate
12:32AM 40.3858 -21.0961 114° Southeast  Level FlightAware Approximate
12:33AM 40.3304 -20.9361 114° Southeast  Level FlightAware Approximate
12:34AM 40.2748 -20.7763 114° Southeast  Level FlightAware Approximate
12:35AM 40.2190 -20.6169 115° Southeast  Level FlightAware Approximate
12:36AM 40.1629 -20.4576 115° Southeast  Level FlightAware Approximate
12:37AM 40.1066 -20.2987 115° Southeast  Level FlightAware Approximate
12:38AM 40.0501 -20.1400 115° Southeast  Level FlightAware Approximate
12:39AM 39.9965 -19.9802 103° East  Level FlightAware Approximate
12:40AM 39.9664 -19.8099 103° East  Level FlightAware Approximate
12:41AM 39.9360 -19.6397 103° East  Level FlightAware Approximate
12:42AM 39.9054 -19.4697 103° East  Level FlightAware Approximate
12:43AM 39.8745 -19.2999 103° East  Level FlightAware Approximate
12:44AM 39.8434 -19.1302 103° East  Level FlightAware Approximate
12:45AM 39.8120 -18.9607 103° East  Level FlightAware Approximate
12:46AM 39.7804 -18.7913 104° East  Level FlightAware Approximate
12:47AM 39.7486 -18.6221 104° East  Level FlightAware Approximate
12:48AM 39.7165 -18.4530 104° East  Level FlightAware Approximate
12:49AM 39.6841 -18.2841 104° East  Level FlightAware Approximate
12:50AM 39.6516 -18.1154 104° East  Level FlightAware Approximate
12:51AM 39.6187 -17.9468 104° East  Level FlightAware Approximate
12:52AM 39.5856 -17.7783 104° East  Level FlightAware Approximate
12:53AM 39.5523 -17.6101 104° East  Level FlightAware Approximate
12:54AM 39.5188 -17.4420 104° East  Level FlightAware Approximate
12:55AM 39.4850 -17.2740 105° East  Level FlightAware Approximate
12:56AM 39.4509 -17.1062 105° East  Level FlightAware Approximate
12:57AM 39.4166 -16.9386 105° East  Level FlightAware Approximate
12:58AM 39.3821 -16.7712 105° East  Level FlightAware Approximate
12:59AM 39.3473 -16.6039 105° East  Level FlightAware Approximate
01:00AM 39.3123 -16.4368 105° East  Level FlightAware Approximate
01:01AM 39.2771 -16.2698 105° East  Level FlightAware Approximate
01:02AM 39.2416 -16.1030 105° East  Level FlightAware Approximate
01:03AM 39.2059 -15.9364 105° East  Level FlightAware Approximate
01:04AM 39.1699 -15.7700 106° East  Level FlightAware Approximate
01:05AM 39.1337 -15.6037 106° East  Level FlightAware Approximate
01:06AM 39.0973 -15.4376 106° East  Level FlightAware Approximate
01:07AM 39.0606 -15.2717 106° East  Level FlightAware Approximate
01:08AM 39.0237 -15.1059 106° East  Level FlightAware Approximate
01:09AM 38.9854 -14.9408 108° East  Level FlightAware Approximate
01:10AM 38.9446 -14.7768 108° East  Level FlightAware Approximate
01:11AM 38.9036 -14.6129 108° East  Level FlightAware Approximate
01:12AM 38.8624 -14.4492 108° East  Level FlightAware Approximate
01:13AM 38.8209 -14.2857 108° East  Level FlightAware Approximate
01:14AM 38.7793 -14.1224 108° East  Level FlightAware Approximate
01:15AM 38.7374 -13.9593 108° East  Level FlightAware Approximate
01:16AM 38.6952 -13.7963 108° East  Level FlightAware Approximate
01:17AM 38.6529 -13.6336 108° East  Level FlightAware Approximate
01:18AM 38.6103 -13.4711 108° East  Level FlightAware Approximate
01:19AM 38.5675 -13.3087 109° East  Level FlightAware Approximate
01:20AM 38.5244 -13.1466 109° East  Level FlightAware Approximate
01:21AM 38.4812 -12.9846 109° East  Level FlightAware Approximate
01:22AM 38.4377 -12.8229 109° East  Level FlightAware Approximate
01:23AM 38.3940 -12.6613 109° East  Level FlightAware Approximate
01:24AM 38.3501 -12.4999 109° East  Level FlightAware Approximate
01:25AM 38.3059 -12.3387 109° East  Level FlightAware Approximate
01:26AM 38.2616 -12.1778 109° East  Level FlightAware Approximate
01:27AM 38.2170 -12.0170 109° East  Level FlightAware Approximate
01:28AM 38.1722 -11.8564 109° East  Level FlightAware Approximate
01:29AM 38.1272 -11.6960 110° East  Level FlightAware Approximate
01:30AM 38.0819 -11.5358 110° East  Level FlightAware Approximate
01:31AM 38.0365 -11.3758 110° East  Level FlightAware Approximate
01:32AM 37.9908 -11.2160 110° East  Level FlightAware Approximate
01:33AM 37.9449 -11.0564 110° East  Level FlightAware Approximate
01:34AM 37.8988 -10.8970 110° East  Level FlightAware Approximate
01:35AM 37.8525 -10.7379 110° East  Level FlightAware Approximate
01:36AM 37.8060 -10.5789 110° East  Level FlightAware Approximate
01:37AM 37.7592 -10.4201 110° East  Level FlightAware Approximate
01:38AM 37.7123 -10.2615 110° East  Level FlightAware Approximate
01:39AM 37.6651 -10.1031 111° Southeast  Level FlightAware Approximate
01:40AM 37.6177 -9.9449 111° Southeast  Level FlightAware Approximate
01:41AM 37.5701 -9.7869 111° Southeast  Level FlightAware Approximate
01:42AM 37.5223 -9.6291 111° Southeast  Level FlightAware Approximate
01:43AM 37.4743 -9.4715 111° Southeast  Level FlightAware Approximate
01:44AM 37.4261 -9.3142 111° Southeast  Level FlightAware Approximate
01:45AM 37.3777 -9.1570 111° Southeast  Level FlightAware Approximate
01:46AM 37.3290 -9.0000 111° Southeast  Level FlightAware Approximate
01:47AM 37.2802 -8.8433 111° Southeast  Level FlightAware Approximate
01:48AM 37.2293 -8.6876 113° Southeast  Level FlightAware Approximate
01:49AM 37.1798 -8.5314 110° East  Level FlightAware Approximate
01:50AM 37.1333 -8.3739 110° East  Level FlightAware Approximate
01:51AM 37.0865 -8.2165 110° East  Level FlightAware Approximate
01:52AM 37.0322 -8.0633 113° Southeast  Level FlightAware Approximate
01:53AM 37.0122 -7.9056 76° East  Level FlightAware Approximate
01:54AM 37.0474 -7.7438 73° East  Level FlightAware Approximate
01:55AM 37.0792 -7.5808 76° East  Level FlightAware Approximate
01:56AM 37.1102 -7.4175 77° East  Level FlightAware Approximate
01:57AM 37.1434 -7.2547 75° East  Level FlightAware Approximate
01:58AM 37.1770 -7.0921 75° East  Level FlightAware Approximate
01:59AM 37.2104 -6.9293 76° East  Level FlightAware Approximate
02:00AM 37.2333 -6.7647 90° East  Level FlightAware Approximate
02:01AM 37.1547 -6.6326 131° Southeast  Level FlightAware Approximate
02:02AM 37.0669 -6.5057 131° Southeast  Level FlightAware Approximate
02:03AM 36.9767 -6.3818 134° Southeast  Level FlightAware Approximate
02:04AM 36.8873 -6.2579 122° Southeast  Level FlightAware Approximate
02:05AM 36.7991 -6.1322 135° Southeast  Level FlightAware Approximate
02:06AM 36.7446 -6.0601 135° Southeast  Level Estimated
02:07AM 36.7446 -6.0601 135° Southeast  Level Estimated
02:08AM 36.7446 -6.0601 135° Southeast  Level Estimated
02:09AM 36.7446 -6.0601 135° Southeast  Level Estimated
02:10AM 36.7446 -6.0601 135° Southeast  Level Estimated
02:11AM 36.7446 -6.0601 135° Southeast  Level Estimated
02:12AM 36.7446 -6.0601 135° Southeast  Level Estimated
02:13AM 36.7446 -6.0601 135° Southeast  Level Estimated
02:14AM 36.7446 -6.0601 135° Southeast  Level Estimated
02:15AM 36.7446 -6.0601 135° Southeast  Level Estimated
02:16AM 36.7446 -6.0601 135° Southeast  Level Estimated
02:17AM 36.7446 -6.0601 135° Southeast  Level Estimated
02:18AM 36.7446 -6.0601 135° Southeast  Level Estimated
02:19AM 36.7446 -6.0601 135° Southeast  Level Estimated
02:20AM 36.7446 -6.0601 135° Southeast  Level Estimated
02:21AM 36.7446 -6.0601 135° Southeast  Level Estimated
02:22AM 36.7446 -6.0601 135° Southeast  Level Estimated
02:23AM 36.7446 -6.0601 135° Southeast  Level Estimated
02:24AM 36.7446 -6.0601 135° Southeast  Level Estimated
02:25AM 36.7446 -6.0601 135° Southeast  Level Estimated
02:26AM 36.7446 -6.0601 135° Southeast  Level Estimated
02:27AM 36.7446 -6.0601 135° Southeast  Level Estimated
02:28AM 36.7446 -6.0601 135° Southeast  Level Estimated
02:29AM 36.7446 -6.0601 135° Southeast  Level Estimated
02:30AM 36.7446 -6.0601 135° Southeast  Level Estimated
02:31AM 36.7446 -6.0601 135° Southeast  Level Estimated
02:32AM 36.7446 -6.0601 135° Southeast  Level Estimated